Terminal Aerodrome Forecast
Issued by NWS

Home | Current Version | Previous Version | Text Only | Print | Product List | Glossary On
Versions: 1 2 3 4 5 6 7 8 9 10 11 12 13 14 15 16 17 18 19 20 21 22 23 24 25 26 27 28 29 30 31 32 33 34 35 36 37 38 39 40 41 42 43 44 45
000
FTUS43 KMKX 230520
TAFUES
TAF
KUES 230520Z 2306/2406 21007KT P6SM VCSH SCT025 OVC070
      TEMPO 2307/2310 BKN025
     FM231000 22005KT 5SM BR SCT025 BKN050
     FM231200 22004KT 3SM BR VCSH BKN015
     FM231500 18004KT 6SM BR VCSH OVC010
     FM231700 14005KT 5SM -SHRA OVC008
     FM232200 09007KT 6SM -SHRA OVC025
     FM240200 05005KT P6SM -SHRA OVC035=

USA.gov is the U.S. government's official web portal to all federal, state and local government web resources and services.